Time;durP1;ratioP1;P1;durP2;ratioP2;P2;SDS_P1;SDS_P2;PMS_P1;PMS_P2;Temp;Humidity;BMP_temperature;BMP_pressure;BME280_temperature;BME280_humidity;BME280_pressure;Samples;Min_cycle;Max_cycle;Signal;HPM_P1;HPM_P2
2022/10/10 00:01:23;;;;;;;56.13;40.53;;;10.50;99.90;;;;;;5052629;28;20049;-72
2022/10/10 00:03:50;;;;;;;51.95;40.75;;;10.50;99.90;;;;;;5051385;28;20499;-72
2022/10/10 00:06:18;;;;;;;51.75;39.85;;;10.40;99.90;;;;;;5052009;28;20048;-72
2022/10/10 00:08:45;;;;;;;55.97;42.78;;;10.40;99.90;;;;;;5050677;28;20052;-72
2022/10/10 00:11:14;;;;;;;57.47;43.72;;;10.40;99.90;;;;;;5051396;28;20045;-72
2022/10/10 00:13:43;;;;;;;62.85;47.28;;;10.30;99.90;;;;;;5052510;28;20499;-71
2022/10/10 00:16:11;;;;;;;61.22;45.70;;;10.40;99.90;;;;;;5052633;28;20049;-72
2022/10/10 00:18:39;;;;;;;66.07;47.58;;;10.40;99.90;;;;;;5051750;28;20099;-71
2022/10/10 00:21:08;;;;;;;64.57;45.80;;;10.30;99.90;;;;;;5051935;28;20419;-72
2022/10/10 00:23:36;;;;;;;62.78;44.78;;;10.30;99.90;;;;;;5052456;28;20053;-71
2022/10/10 00:26:05;;;;;;;62.25;46.08;;;10.30;99.90;;;;;;5053152;28;20040;-72
2022/10/10 00:28:32;;;;;;;68.65;49.78;;;10.30;99.90;;;;;;5052978;28;20049;-71
2022/10/10 00:31:01;;;;;;;75.47;52.03;;;10.20;99.90;;;;;;5055770;28;20445;-71
2022/10/10 00:33:28;;;;;;;64.28;48.10;;;10.10;99.90;;;;;;5054653;28;20041;-72
2022/10/10 00:35:56;;;;;;;74.40;50.55;;;10.10;99.90;;;;;;5040504;28;20046;-72
2022/10/10 00:38:23;;;;;;;70.13;48.83;;;10.10;99.90;;;;;;5051110;28;20419;-72
2022/10/10 00:40:53;;;;;;;69.60;50.60;;;10.10;99.90;;;;;;5055594;28;20044;-72
2022/10/10 00:43:21;;;;;;;70.80;51.92;;;10.10;99.90;;;;;;5055628;28;20120;-72
2022/10/10 00:45:49;;;;;;;78.38;52.53;;;10.00;99.90;;;;;;5056051;28;20037;-72
2022/10/10 00:48:20;;;;;;;73.25;53.35;;;10.00;99.90;;;;;;5054606;28;20072;-73
2022/10/10 00:50:54;;;;;;;75.57;53.15;;;10.00;99.90;;;;;;5056318;28;20144;-73
2022/10/10 00:53:25;;;;;;;69.88;52.60;;;10.00;99.90;;;;;;5054906;28;20075;-73
2022/10/10 00:55:53;;;;;;;70.32;49.95;;;10.00;99.90;;;;;;5055671;28;20037;-73
2022/10/10 00:58:21;;;;;;;60.85;46.10;;;10.00;99.90;;;;;;5055044;28;20052;-72
2022/10/10 01:00:49;;;;;;;59.60;44.88;;;10.00;99.90;;;;;;5055736;28;20037;-72
2022/10/10 01:03:18;;;;;;;67.53;45.50;;;10.00;99.90;;;;;;5055271;28;20090;-73
2022/10/10 01:05:46;;;;;;;77.15;47.13;;;10.00;99.90;;;;;;5054119;28;20103;-73
2022/10/10 01:08:14;;;;;;;67.43;48.55;;;10.00;99.90;;;;;;5055473;28;20170;-73
2022/10/10 01:10:50;;;;;;;68.07;48.10;;;10.00;99.90;;;;;;5054108;28;20448;-72
2022/10/10 01:13:27;;;;;;;72.50;49.45;;;10.00;99.90;;;;;;5055116;28;20052;-72
2022/10/10 01:16:01;;;;;;;67.82;47.58;;;10.00;99.90;;;;;;5054950;28;20041;-74
2022/10/10 01:18:41;;;;;;;85.53;60.58;;;10.00;99.90;;;;;;5053356;28;20114;-73
2022/10/10 01:21:27;;;;;;;63.65;46.63;;;10.00;99.90;;;;;;5053841;28;20390;-73
2022/10/10 01:24:30;;;;;;;55.33;42.35;;;10.00;99.90;;;;;;5055071;28;20048;-72
2022/10/10 01:27:26;;;;;;;55.03;42.35;;;10.00;99.90;;;;;;5050050;28;20578;-72
2022/10/10 01:29:57;;;;;;;51.05;39.92;;;10.10;99.90;;;;;;5054279;28;20554;-72
2022/10/10 01:32:32;;;;;;;56.20;41.78;;;10.00;99.90;;;;;;5052669;28;20076;-73
2022/10/10 01:35:13;;;;;;;52.28;41.22;;;10.00;99.90;;;;;;5054369;28;20099;-73
2022/10/10 01:37:48;;;;;;;54.88;41.10;;;10.10;99.90;;;;;;5054705;28;20128;-73
2022/10/10 01:40:24;;;;;;;56.85;41.67;;;10.00;99.90;;;;;;5055128;28;20432;-72
2022/10/10 01:42:54;;;;;;;57.30;42.70;;;9.90;99.90;;;;;;5054542;28;20087;-72
2022/10/10 01:45:24;;;;;;;58.50;40.40;;;9.90;99.90;;;;;;5054914;28;20106;-72
2022/10/10 01:47:53;;;;;;;60.88;40.83;;;9.90;99.90;;;;;;5053485;28;20068;-71
2022/10/10 01:50:23;;;;;;;64.03;43.00;;;9.80;99.90;;;;;;5054363;28;20041;-71
2022/10/10 01:53:07;;;;;;;52.45;40.55;;;9.80;99.90;;;;;;5053111;28;20077;-72
2022/10/10 01:55:53;;;;;;;53.83;41.47;;;9.80;99.90;;;;;;5053491;28;20124;-71
2022/10/10 01:58:51;;;;;;;52.03;40.33;;;10.00;99.90;;;;;;5052067;28;20055;-72
2022/10/10 02:01:26;;;;;;;54.17;39.63;;;10.00;99.90;;;;;;5035513;28;20104;-71
2022/10/10 02:04:04;;;;;;;59.22;43.08;;;10.00;99.90;;;;;;5034187;28;20091;-73
2022/10/10 02:06:38;;;;;;;54.28;41.45;;;10.00;99.90;;;;;;5040277;28;20383;-74
2022/10/10 02:09:10;;;;;;;51.17;38.90;;;9.90;99.90;;;;;;5061191;28;20044;-72
2022/10/10 02:11:39;;;;;;;49.00;37.95;;;9.90;99.90;;;;;;5057404;28;20045;-72
2022/10/10 02:14:12;;;;;;;53.17;38.70;;;9.90;99.90;;;;;;5054139;28;20073;-73
2022/10/10 02:16:43;;;;;;;52.13;39.67;;;9.80;99.90;;;;;;5052651;28;20048;-73
2022/10/10 02:19:16;;;;;;;57.50;39.85;;;9.80;99.90;;;;;;5052312;28;20045;-73
2022/10/10 02:21:45;;;;;;;52.45;40.40;;;9.80;99.90;;;;;;5038952;28;20068;-73
2022/10/10 02:24:14;;;;;;;48.35;37.72;;;9.80;99.90;;;;;;5052668;28;20446;-72
2022/10/10 02:26:44;;;;;;;53.53;38.95;;;9.70;99.90;;;;;;5053749;28;20476;-74
2022/10/10 02:29:17;;;;;;;48.60;39.10;;;9.80;99.90;;;;;;5052568;28;20052;-72
2022/10/10 02:31:51;;;;;;;48.75;39.50;;;9.80;99.90;;;;;;5046906;28;20041;-72
2022/10/10 02:34:21;;;;;;;47.17;39.08;;;9.90;99.90;;;;;;5051221;28;20037;-72
2022/10/10 02:36:50;;;;;;;47.50;38.28;;;9.90;99.90;;;;;;5045094;28;20061;-72
2022/10/10 02:39:21;;;;;;;48.85;36.92;;;9.90;99.90;;;;;;5053512;28;20400;-72
2022/10/10 02:41:51;;;;;;;57.25;39.50;;;10.00;99.90;;;;;;5052191;28;20080;-71
2022/10/10 02:44:19;;;;;;;51.78;39.70;;;9.90;99.90;;;;;;5052199;28;20053;-72
2022/10/10 02:46:47;;;;;;;53.22;39.60;;;9.90;99.90;;;;;;5052590;28;20187;-72
2022/10/10 02:49:15;;;;;;;53.58;39.03;;;9.90;99.90;;;;;;5052652;28;20048;-72
2022/10/10 02:51:42;;;;;;;53.80;39.50;;;9.80;99.90;;;;;;5051465;28;20455;-73
2022/10/10 02:54:09;;;;;;;51.33;37.40;;;9.80;99.90;;;;;;5053243;28;20049;-72
2022/10/10 02:56:36;;;;;;;56.10;38.55;;;9.80;99.90;;;;;;5053182;28;20087;-72
2022/10/10 02:59:04;;;;;;;53.20;37.78;;;9.80;99.90;;;;;;5053381;28;20033;-72
2022/10/10 03:01:31;;;;;;;50.80;35.80;;;9.80;99.90;;;;;;5052762;28;20069;-72
2022/10/10 03:04:00;;;;;;;56.97;41.50;;;9.70;99.90;;;;;;5053130;28;20052;-72
2022/10/10 03:06:28;;;;;;;60.67;39.90;;;9.70;99.90;;;;;;5052484;28;20078;-72
2022/10/10 03:08:55;;;;;;;53.85;38.45;;;9.70;99.90;;;;;;5051900;28;20048;-72
2022/10/10 03:11:22;;;;;;;52.58;37.83;;;9.70;99.90;;;;;;5052143;28;20098;-72
2022/10/10 03:13:50;;;;;;;51.67;38.75;;;9.70;99.90;;;;;;5052592;28;20041;-72
2022/10/10 03:16:17;;;;;;;58.20;40.10;;;9.60;99.90;;;;;;5050745;28;20558;-72
2022/10/10 03:18:44;;;;;;;57.40;40.90;;;9.60;99.90;;;;;;5051037;28;20398;-72
2022/10/10 03:21:13;;;;;;;53.63;39.10;;;9.60;99.90;;;;;;5051784;28;20131;-72
2022/10/10 03:23:40;;;;;;;63.90;43.28;;;9.60;99.90;;;;;;5051419;28;20033;-73
2022/10/10 03:26:08;;;;;;;57.80;39.90;;;9.60;99.90;;;;;;5052777;28;20084;-71
2022/10/10 03:28:37;;;;;;;53.70;39.97;;;9.50;99.90;;;;;;5053502;28;20071;-72
2022/10/10 03:31:04;;;;;;;54.80;39.38;;;9.50;99.90;;;;;;5052959;28;20087;-71
2022/10/10 03:33:32;;;;;;;55.72;41.72;;;9.50;99.90;;;;;;5051773;28;20084;-72
2022/10/10 03:35:59;;;;;;;61.85;42.95;;;9.50;99.90;;;;;;5037605;28;20091;-72
2022/10/10 03:38:28;;;;;;;58.88;42.45;;;9.50;99.90;;;;;;5050066;28;20516;-72
2022/10/10 03:40:55;;;;;;;59.70;43.35;;;9.50;99.90;;;;;;5052345;28;20041;-72
2022/10/10 03:43:22;;;;;;;62.05;44.13;;;9.40;99.90;;;;;;5052790;28;20043;-72
2022/10/10 03:45:50;;;;;;;66.60;46.13;;;9.50;99.90;;;;;;5052255;28;20071;-72
2022/10/10 03:48:17;;;;;;;65.72;44.97;;;9.50;99.90;;;;;;5052721;28;20095;-72
2022/10/10 03:50:44;;;;;;;65.03;45.72;;;9.60;99.90;;;;;;5051965;28;20064;-72
2022/10/10 03:53:12;;;;;;;65.30;44.15;;;9.60;99.90;;;;;;5051311;28;20056;-72
2022/10/10 03:55:41;;;;;;;64.75;46.08;;;9.60;99.90;;;;;;5052720;28;20120;-72
2022/10/10 03:58:08;;;;;;;70.95;46.35;;;9.70;99.90;;;;;;5052320;28;20562;-72
2022/10/10 04:00:36;;;;;;;69.95;47.45;;;9.70;99.90;;;;;;5051194;28;20120;-72
2022/10/10 04:03:05;;;;;;;65.55;45.95;;;9.70;99.90;;;;;;5050423;28;20393;-72
2022/10/10 04:05:34;;;;;;;68.97;45.20;;;9.70;99.90;;;;;;5048539;28;20071;-73
2022/10/10 04:08:01;;;;;;;56.80;42.78;;;9.70;99.90;;;;;;5053239;28;20045;-73
2022/10/10 04:10:28;;;;;;;57.85;42.95;;;9.70;99.90;;;;;;5053503;28;20041;-72
2022/10/10 04:12:57;;;;;;;62.97;42.42;;;9.70;99.90;;;;;;5053951;28;20052;-73
2022/10/10 04:15:25;;;;;;;64.75;43.60;;;9.70;99.90;;;;;;5048490;28;20056;-72
2022/10/10 04:17:52;;;;;;;69.53;46.63;;;9.70;99.90;;;;;;5043462;28;20128;-73
2022/10/10 04:20:20;;;;;;;64.13;45.92;;;9.80;99.90;;;;;;5054652;28;20072;-73
2022/10/10 04:22:47;;;;;;;69.07;45.95;;;9.80;99.90;;;;;;5053075;28;20393;-72
2022/10/10 04:25:15;;;;;;;70.03;46.80;;;9.70;99.90;;;;;;5053867;28;20080;-73
2022/10/10 04:27:42;;;;;;;66.80;45.03;;;9.70;99.90;;;;;;5053931;28;20049;-73
2022/10/10 04:30:12;;;;;;;66.97;45.00;;;9.70;99.90;;;;;;5036711;28;20041;-73
2022/10/10 04:32:39;;;;;;;63.75;43.67;;;9.80;99.90;;;;;;5038555;28;20598;-72
2022/10/10 04:35:07;;;;;;;61.60;42.40;;;9.80;99.90;;;;;;5045919;28;20046;-73
2022/10/10 04:37:35;;;;;;;63.45;42.92;;;9.70;99.90;;;;;;5044748;28;20075;-73
2022/10/10 04:40:02;;;;;;;69.30;45.13;;;9.70;99.90;;;;;;5055561;28;20115;-73
2022/10/10 04:42:29;;;;;;;62.00;42.92;;;9.70;99.90;;;;;;5055421;28;20049;-73
2022/10/10 04:44:57;;;;;;;60.05;43.38;;;9.70;99.90;;;;;;5055482;28;20489;-73
2022/10/10 04:47:25;;;;;;;64.38;43.05;;;9.70;99.90;;;;;;5054573;28;20056;-73
2022/10/10 04:49:52;;;;;;;58.88;42.90;;;9.70;99.90;;;;;;5054290;28;20072;-75
2022/10/10 04:52:20;;;;;;;54.97;40.42;;;9.80;99.90;;;;;;5055599;28;20053;-75
2022/10/10 04:54:49;;;;;;;61.45;41.38;;;9.80;99.90;;;;;;5055095;28;20068;-75
2022/10/10 04:57:16;;;;;;;72.72;41.47;;;9.80;99.90;;;;;;5053953;28;20426;-75
2022/10/10 04:59:44;;;;;;;86.03;39.97;;;9.80;99.90;;;;;;5053485;28;20430;-75
2022/10/10 05:02:11;;;;;;;62.15;40.30;;;9.80;99.90;;;;;;5035048;28;20511;-75
2022/10/10 05:04:40;;;;;;;99.82;40.58;;;9.80;99.90;;;;;;5035219;28;20061;-75
2022/10/10 05:07:07;;;;;;;56.53;38.47;;;9.80;99.90;;;;;;5035308;28;20558;-75
2022/10/10 05:09:34;;;;;;;60.25;40.65;;;9.90;99.90;;;;;;5033986;28;20061;-75
2022/10/10 05:12:01;;;;;;;85.70;46.88;;;10.00;99.90;;;;;;5050528;28;20041;-75
2022/10/10 05:14:29;;;;;;;76.15;43.15;;;10.10;99.90;;;;;;5052363;28;20033;-74
2022/10/10 05:16:56;;;;;;;73.50;42.95;;;10.10;99.90;;;;;;5054874;28;20444;-75
2022/10/10 05:19:23;;;;;;;67.75;42.67;;;10.20;99.90;;;;;;5054233;28;20566;-77
2022/10/10 05:21:52;;;;;;;62.85;40.55;;;10.20;99.90;;;;;;5054710;28;20045;-74
2022/10/10 05:24:20;;;;;;;65.00;41.80;;;10.20;99.90;;;;;;5054723;28;20062;-74
2022/10/10 05:26:47;;;;;;;59.47;39.47;;;10.30;99.90;;;;;;5041371;28;20044;-73
2022/10/10 05:29:14;;;;;;;53.88;37.65;;;10.40;99.90;;;;;;5035063;28;20054;-73
2022/10/10 05:31:41;;;;;;;55.30;37.88;;;10.50;99.90;;;;;;5035241;28;20092;-74
2022/10/10 05:34:12;;;;;;;63.47;40.55;;;10.50;99.90;;;;;;5051350;28;20036;-73
2022/10/10 05:36:39;;;;;;;57.20;39.65;;;10.50;99.90;;;;;;5036877;28;20049;-73
2022/10/10 05:39:08;;;;;;;66.90;41.40;;;10.60;99.90;;;;;;5056605;28;20045;-74
2022/10/10 05:41:35;;;;;;;68.43;44.47;;;10.60;99.90;;;;;;5055222;28;20067;-74
2022/10/10 05:44:02;;;;;;;71.13;42.78;;;10.60;99.90;;;;;;5054326;28;20124;-73
2022/10/10 05:46:30;;;;;;;68.78;43.85;;;10.60;99.90;;;;;;5054313;28;20090;-73
2022/10/10 05:48:57;;;;;;;60.80;42.08;;;10.70;99.90;;;;;;5054630;28;20401;-73
2022/10/10 05:51:24;;;;;;;62.13;41.15;;;10.80;99.90;;;;;;5054615;28;20044;-73
2022/10/10 05:53:52;;;;;;;65.07;41.40;;;10.80;99.90;;;;;;5052967;28;20048;-73
2022/10/10 05:56:20;;;;;;;66.07;40.72;;;10.90;99.90;;;;;;5052159;28;20049;-73
2022/10/10 05:58:48;;;;;;;61.67;40.88;;;11.00;99.90;;;;;;5054126;28;20128;-74
2022/10/10 06:01:15;;;;;;;69.95;41.22;;;11.00;99.90;;;;;;5044584;28;20059;-73
2022/10/10 06:03:42;;;;;;;67.88;42.60;;;11.10;99.90;;;;;;5033899;28;20197;-73
2022/10/10 06:06:10;;;;;;;74.50;42.08;;;11.10;99.90;;;;;;5032610;28;20477;-73
2022/10/10 06:08:37;;;;;;;73.10;44.42;;;11.20;99.90;;;;;;5033999;28;20088;-74
2022/10/10 06:11:06;;;;;;;68.38;45.33;;;11.20;99.90;;;;;;5042770;28;20511;-74
2022/10/10 06:13:35;;;;;;;77.85;46.30;;;11.10;99.90;;;;;;5054190;28;20071;-74
2022/10/10 06:16:02;;;;;;;71.93;44.53;;;11.30;99.90;;;;;;5053761;28;20052;-74
2022/10/10 06:18:30;;;;;;;66.53;42.38;;;11.40;99.90;;;;;;5053771;28;20127;-74
2022/10/10 06:21:01;;;;;;;66.93;41.83;;;11.60;99.90;;;;;;5053899;28;20069;-74
2022/10/10 06:23:29;;;;;;;78.05;43.30;;;11.70;99.90;;;;;;5053637;28;20116;-74
2022/10/10 06:25:56;;;;;;;65.60;42.67;;;11.90;99.90;;;;;;5052997;28;20127;-74
2022/10/10 06:28:23;;;;;;;64.00;40.85;;;11.90;99.90;;;;;;5053634;28;20408;-74
2022/10/10 06:30:52;;;;;;;65.20;42.33;;;12.00;99.90;;;;;;5053662;28;20049;-74
2022/10/10 06:33:19;;;;;;;62.83;40.40;;;12.10;99.90;;;;;;5043274;28;20079;-74
2022/10/10 06:35:48;;;;;;;59.70;39.10;;;12.30;99.90;;;;;;5039576;28;20095;-75
2022/10/10 06:38:16;;;;;;;66.70;41.63;;;12.30;99.90;;;;;;5048052;28;20095;-73
2022/10/10 06:40:44;;;;;;;70.20;44.72;;;12.40;99.90;;;;;;5052441;28;20045;-73
2022/10/10 06:43:13;;;;;;;71.63;46.35;;;12.40;99.90;;;;;;5051676;28;20053;-77
2022/10/10 06:45:43;;;;;;;59.97;43.13;;;12.40;99.90;;;;;;5053207;28;20125;-73
2022/10/10 06:48:12;;;;;;;63.03;42.80;;;12.40;99.90;;;;;;5053560;28;20079;-74
2022/10/10 06:50:40;;;;;;;55.80;40.40;;;12.50;99.90;;;;;;5053945;28;20079;-75
2022/10/10 06:53:08;;;;;;;54.65;38.92;;;12.60;99.90;;;;;;5053750;28;20182;-75
2022/10/10 06:55:35;;;;;;;50.90;37.25;;;12.60;99.90;;;;;;5052948;28;20060;-74
2022/10/10 06:58:02;;;;;;;51.33;36.95;;;12.70;99.90;;;;;;5053034;28;20041;-74
2022/10/10 07:00:30;;;;;;;48.58;37.15;;;12.70;99.90;;;;;;5051587;28;20063;-73
2022/10/10 07:02:57;;;;;;;51.20;36.58;;;12.70;99.90;;;;;;5052477;28;20123;-74
2022/10/10 07:05:25;;;;;;;49.40;37.97;;;12.80;99.90;;;;;;5052582;28;20073;-73
2022/10/10 07:07:53;;;;;;;49.85;36.20;;;12.80;99.90;;;;;;5045061;28;20481;-74
2022/10/10 07:10:20;;;;;;;58.80;38.63;;;12.90;99.90;;;;;;5036694;28;20033;-74
2022/10/10 07:12:47;;;;;;;56.63;38.13;;;13.00;99.90;;;;;;5052874;28;20052;-74
2022/10/10 07:15:15;;;;;;;54.10;38.90;;;13.00;99.90;;;;;;5053719;28;20097;-74
2022/10/10 07:17:42;;;;;;;53.40;37.10;;;13.00;99.90;;;;;;5053739;28;20069;-74
2022/10/10 07:20:09;;;;;;;54.45;39.28;;;13.10;99.90;;;;;;5054561;28;20049;-73
2022/10/10 07:22:38;;;;;;;62.20;41.22;;;13.20;99.90;;;;;;5060086;28;20077;-74
2022/10/10 07:25:06;;;;;;;56.75;38.30;;;13.20;99.90;;;;;;5058813;28;20071;-73
2022/10/10 07:27:33;;;;;;;57.47;40.20;;;13.30;99.90;;;;;;5056182;28;20455;-74
2022/10/10 07:30:00;;;;;;;57.80;40.97;;;13.30;99.90;;;;;;5058615;28;20041;-73
2022/10/10 07:32:28;;;;;;;58.35;41.63;;;13.30;99.90;;;;;;5049584;28;20444;-74
2022/10/10 07:34:57;;;;;;;107.57;43.83;;;13.40;99.90;;;;;;5049469;28;20076;-74
2022/10/10 07:37:24;;;;;;;83.55;41.53;;;13.40;99.90;;;;;;5042415;28;20055;-73
2022/10/10 07:39:54;;;;;;;836.42;177.27;;;13.60;99.90;;;;;;5058154;28;20095;-74
2022/10/10 07:42:21;;;;;;;84.47;43.92;;;13.80;99.90;;;;;;5059633;28;20120;-74
2022/10/10 07:44:49;;;;;;;49.20;37.40;;;14.10;99.90;;;;;;5061775;28;20044;-73
2022/10/10 07:47:16;;;;;;;47.15;36.83;;;14.40;99.90;;;;;;5058722;28;20069;-72
2022/10/10 07:49:43;;;;;;;56.90;41.65;;;14.60;99.90;;;;;;5059790;28;20068;-73
2022/10/10 07:52:12;;;;;;;68.07;43.22;;;14.70;99.90;;;;;;5063113;28;20162;-73
2022/10/10 07:54:39;;;;;;;68.28;44.78;;;14.80;99.90;;;;;;5067951;28;20044;-72
2022/10/10 07:57:08;;;;;;;64.85;46.13;;;15.10;99.90;;;;;;5063438;28;20080;-73
2022/10/10 07:59:35;;;;;;;93.45;53.72;;;15.40;99.90;;;;;;5059291;28;20437;-72
2022/10/10 08:02:02;;;;;;;81.85;56.67;;;15.70;99.90;;;;;;5062409;28;20072;-72
2022/10/10 08:04:29;;;;;;;72.03;50.85;;;16.00;99.90;;;;;;5056967;28;20076;-72
2022/10/10 08:06:56;;;;;;;75.75;51.63;;;16.10;99.90;;;;;;5057784;28;20097;-71
2022/10/10 08:09:24;;;;;;;71.28;50.97;;;16.10;99.90;;;;;;5056921;28;20063;-71
2022/10/10 08:11:51;;;;;;;78.32;55.95;;;16.40;99.90;;;;;;5056309;28;20128;-71
2022/10/10 08:14:20;;;;;;;81.38;57.35;;;16.60;99.90;;;;;;5056068;28;20044;-71
2022/10/10 08:16:47;;;;;;;88.72;58.97;;;16.60;99.90;;;;;;5056398;28;20043;-72
2022/10/10 08:19:14;;;;;;;83.97;57.65;;;16.60;99.90;;;;;;5056539;28;20051;-72
2022/10/10 08:21:42;;;;;;;75.90;54.58;;;16.60;99.90;;;;;;5056652;28;20457;-74
2022/10/10 08:24:09;;;;;;;81.47;58.63;;;16.80;99.90;;;;;;5056037;28;20116;-74
2022/10/10 08:26:36;;;;;;;84.65;57.92;;;17.00;99.90;;;;;;5056404;28;20416;-74
2022/10/10 08:29:03;;;;;;;86.32;57.10;;;16.90;99.90;;;;;;5056353;28;20045;-74
2022/10/10 08:31:32;;;;;;;91.95;57.55;;;17.10;99.90;;;;;;5052584;28;20052;-74
2022/10/10 08:33:59;;;;;;;80.53;57.70;;;17.20;99.90;;;;;;5051256;28;20083;-74
2022/10/10 08:36:27;;;;;;;81.55;57.58;;;17.30;99.90;;;;;;5039689;28;20037;-75
2022/10/10 08:38:59;;;;;;;84.72;57.42;;;17.30;99.90;;;;;;5053228;28;20045;-74
2022/10/10 08:41:37;;;;;;;77.88;53.65;;;17.40;99.90;;;;;;5054674;28;20048;-74
2022/10/10 08:44:13;;;;;;;66.18;49.03;;;17.60;99.90;;;;;;5055414;28;20041;-74
2022/10/10 08:46:46;;;;;;;67.82;50.58;;;17.60;99.90;;;;;;5048766;28;20400;-74
2022/10/10 08:49:20;;;;;;;62.47;49.28;;;17.70;99.90;;;;;;5036731;28;20104;-75
2022/10/10 08:51:54;;;;;;;60.63;48.15;;;17.80;99.90;;;;;;5035886;28;20042;-74
2022/10/10 08:54:23;;;;;;;68.32;51.80;;;17.80;99.90;;;;;;5033687;28;20041;-74
2022/10/10 08:56:51;;;;;;;64.72;52.35;;;17.70;99.90;;;;;;5034101;28;20060;-74
2022/10/10 08:59:24;;;;;;;72.38;52.08;;;17.70;99.90;;;;;;5035567;28;20513;-74
2022/10/10 09:02:00;;;;;;;57.78;47.65;;;17.90;99.90;;;;;;5035714;28;20051;-74
2022/10/10 09:04:31;;;;;;;61.92;45.70;;;18.10;99.90;;;;;;5035238;28;20463;-74
2022/10/10 09:07:11;;;;;;;60.17;44.72;;;18.20;99.90;;;;;;5035333;28;20120;-74
2022/10/10 09:09:47;;;;;;;63.90;49.92;;;18.40;99.90;;;;;;5034209;28;20045;-73
2022/10/10 09:12:25;;;;;;;63.05;44.83;;;18.50;99.90;;;;;;5054053;28;20547;-74
2022/10/10 09:15:03;;;;;;;55.95;42.92;;;18.40;99.90;;;;;;5054641;28;20041;-74
2022/10/10 09:17:39;;;;;;;50.90;39.47;;;18.40;99.90;;;;;;5055502;28;20094;-74
2022/10/10 09:20:24;;;;;;;58.28;43.38;;;18.40;99.90;;;;;;5055149;28;20408;-74
2022/10/10 09:22:57;;;;;;;54.35;44.60;;;18.40;99.90;;;;;;5055336;28;20102;-74
2022/10/10 09:25:29;;;;;;;53.85;43.50;;;18.40;99.90;;;;;;5054591;28;20560;-72
2022/10/10 09:28:05;;;;;;;60.50;42.72;;;18.40;99.90;;;;;;5054905;28;20489;-72
2022/10/10 09:30:35;;;;;;;55.22;40.95;;;18.50;99.90;;;;;;5053431;28;20052;-72
2022/10/10 09:33:09;;;;;;;47.50;37.47;;;18.70;99.90;;;;;;5046347;28;20041;-71
2022/10/10 09:35:39;;;;;;;46.72;35.47;;;18.80;99.90;;;;;;5047099;28;20060;-71
2022/10/10 09:38:23;;;;;;;50.92;39.15;;;18.90;99.90;;;;;;5053684;28;20037;-72
2022/10/10 09:40:58;;;;;;;40.40;33.88;;;19.10;99.90;;;;;;5048376;28;20038;-71
2022/10/10 09:43:32;;;;;;;41.75;35.08;;;19.20;99.90;;;;;;5034301;28;20041;-72
2022/10/10 09:45:59;;;;;;;41.42;34.42;;;19.40;99.90;;;;;;5034219;28;20061;-71
2022/10/10 09:48:31;;;;;;;42.58;32.25;;;19.60;99.90;;;;;;5032976;28;20551;-71
2022/10/10 09:50:59;;;;;;;50.92;32.40;;;19.70;99.90;;;;;;5035117;28;20069;-72
2022/10/10 09:53:27;;;;;;;35.45;26.45;;;19.70;99.90;;;;;;5034637;28;20072;-71
2022/10/10 09:55:55;;;;;;;36.00;23.55;;;19.70;99.90;;;;;;5034000;28;20068;-71
2022/10/10 09:58:30;;;;;;;30.10;23.88;;;19.80;99.90;;;;;;5033817;28;20053;-71
2022/10/10 10:01:12;;;;;;;26.67;20.30;;;20.00;99.90;;;;;;5033822;28;20072;-71
2022/10/10 10:03:41;;;;;;;35.55;19.20;;;20.20;99.90;;;;;;5033803;28;20048;-72
2022/10/10 10:06:13;;;;;;;22.02;18.05;;;20.20;99.90;;;;;;5033851;28;20045;-72
2022/10/10 10:08:42;;;;;;;22.15;19.10;;;20.20;99.90;;;;;;5034340;28;20041;-72
2022/10/10 10:11:25;;;;;;;20.70;17.55;;;20.00;99.90;;;;;;5043709;28;20068;-74
2022/10/10 10:13:56;;;;;;;20.17;17.77;;;19.90;99.90;;;;;;5053618;28;20411;-74
2022/10/10 10:16:32;;;;;;;20.35;17.48;;;19.90;99.90;;;;;;5053487;28;20033;-73
2022/10/10 10:19:01;;;;;;;75.30;28.48;;;20.00;99.90;;;;;;5033680;28;20045;-74
2022/10/10 10:21:29;;;;;;;39.03;30.45;;;20.00;99.90;;;;;;5034468;28;20517;-73
2022/10/10 10:23:58;;;;;;;27.55;20.88;;;20.10;99.90;;;;;;5032642;28;20088;-73
2022/10/10 10:26:29;;;;;;;21.75;19.30;;;20.30;99.90;;;;;;5034071;28;20500;-73
2022/10/10 10:28:58;;;;;;;20.65;18.10;;;20.40;99.90;;;;;;5033766;28;20355;-74
2022/10/10 10:31:38;;;;;;;23.80;19.30;;;20.40;99.90;;;;;;5033675;28;20543;-73
2022/10/10 10:34:26;;;;;;;22.38;19.42;;;20.50;99.90;;;;;;5049729;28;20384;-72
2022/10/10 10:37:00;;;;;;;22.65;18.77;;;20.70;99.90;;;;;;5045732;28;20036;-73
2022/10/10 10:39:40;;;;;;;20.00;16.27;;;20.70;99.90;;;;;;5051645;28;20106;-73
2022/10/10 10:42:21;;;;;;;23.38;17.75;;;20.60;99.90;;;;;;5052892;28;20113;-73
2022/10/10 10:44:56;;;;;;;18.85;16.83;;;20.50;99.90;;;;;;5031961;28;20440;-74
2022/10/10 10:47:36;;;;;;;39.13;21.85;;;20.50;99.90;;;;;;5032014;28;20112;-74
2022/10/10 10:50:29;;;;;;;23.20;17.77;;;20.50;99.90;;;;;;5033992;28;20463;-73
2022/10/10 10:53:10;;;;;;;33.35;19.17;;;20.60;99.90;;;;;;5033070;28;20052;-73
2022/10/10 10:55:43;;;;;;;23.90;16.70;;;20.70;99.90;;;;;;5033053;28;20038;-74
2022/10/10 10:58:44;;;;;;;17.77;15.82;;;20.70;99.90;;;;;;5033315;28;20100;-73
2022/10/10 11:01:16;;;;;;;18.40;16.48;;;20.70;99.90;;;;;;5011238;28;20157;-73
2022/10/10 11:03:51;;;;;;;28.23;17.45;;;20.80;99.90;;;;;;5033033;28;20116;-73
2022/10/10 11:06:36;;;;;;;81.97;27.63;;;20.70;99.90;;;;;;5045573;28;20083;-73
2022/10/10 11:09:13;;;;;;;20.25;18.00;;;20.70;99.90;;;;;;5033382;28;20046;-73
2022/10/10 11:11:55;;;;;;;20.38;15.57;;;20.80;99.90;;;;;;5050699;28;20040;-73
2022/10/10 11:14:40;;;;;;;18.50;16.58;;;20.80;99.90;;;;;;5049804;28;20459;-74
2022/10/10 11:17:14;;;;;;;18.33;16.30;;;20.90;99.90;;;;;;5050581;28;20065;-74
2022/10/10 11:19:45;;;;;;;20.25;14.50;;;21.00;99.90;;;;;;5052309;28;20073;-75
2022/10/10 11:22:18;;;;;;;17.20;14.43;;;20.90;99.90;;;;;;5052104;28;20499;-74
2022/10/10 11:24:50;;;;;;;18.48;15.55;;;20.90;99.90;;;;;;5050724;28;20056;-74
2022/10/10 11:27:23;;;;;;;19.42;15.35;;;21.00;99.90;;;;;;5051258;28;20041;-75
2022/10/10 11:30:00;;;;;;;20.63;17.77;;;21.10;99.90;;;;;;5051747;28;20080;-74
2022/10/10 11:32:33;;;;;;;18.98;17.05;;;21.20;99.90;;;;;;5046159;28;20037;-74
2022/10/10 11:35:20;;;;;;;23.20;16.60;;;21.20;99.90;;;;;;5051403;28;20037;-74
2022/10/10 11:37:54;;;;;;;17.25;15.48;;;21.30;99.90;;;;;;5048120;28;20539;-74
2022/10/10 11:40:32;;;;;;;19.63;15.20;;;21.30;99.90;;;;;;5052459;28;20064;-73
2022/10/10 11:43:03;;;;;;;18.40;15.18;;;21.40;99.90;;;;;;5048783;28;20462;-77
2022/10/10 11:45:35;;;;;;;18.95;15.65;;;21.40;99.90;;;;;;5052625;28;20562;-75
2022/10/10 11:48:17;;;;;;;19.42;17.17;;;21.30;99.90;;;;;;5053814;28;20055;-75
2022/10/10 11:50:45;;;;;;;18.67;15.38;;;21.40;99.90;;;;;;5053658;28;20072;-75
2022/10/10 11:53:22;;;;;;;20.33;15.00;;;21.40;99.90;;;;;;5052639;28;20102;-75
2022/10/10 11:55:56;;;;;;;15.25;13.70;;;21.40;99.90;;;;;;5051741;28;20063;-76
2022/10/10 11:58:31;;;;;;;21.02;15.07;;;21.40;99.90;;;;;;5053016;28;20132;-74
2022/10/10 12:01:05;;;;;;;22.80;18.10;;;21.40;99.90;;;;;;5042607;28;20424;-76
2022/10/10 12:03:33;;;;;;;18.80;15.75;;;21.30;99.90;;;;;;5054169;28;20041;-75
2022/10/10 12:06:05;;;;;;;21.50;15.73;;;21.40;99.90;;;;;;5050894;28;20037;-74
2022/10/10 12:08:38;;;;;;;19.85;17.15;;;21.40;99.90;;;;;;5052329;28;20044;-75
2022/10/10 12:11:13;;;;;;;22.88;17.25;;;21.50;99.90;;;;;;5051689;28;20098;-74
2022/10/10 12:13:43;;;;;;;18.67;15.77;;;21.60;99.90;;;;;;5050164;28;20135;-75
2022/10/10 12:16:14;;;;;;;22.73;16.92;;;21.70;99.90;;;;;;5052201;28;20717;-75
2022/10/10 12:18:45;;;;;;;26.98;19.38;;;21.50;99.90;;;;;;5051620;28;20090;-75
2022/10/10 12:21:14;;;;;;;18.10;14.95;;;21.50;99.90;;;;;;5032966;28;20057;-75
2022/10/10 12:23:47;;;;;;;19.92;16.85;;;21.50;99.90;;;;;;5049121;28;20048;-75
2022/10/10 12:26:19;;;;;;;18.98;16.80;;;21.50;99.90;;;;;;5056698;28;20048;-75
2022/10/10 12:29:02;;;;;;;18.27;16.38;;;21.60;99.90;;;;;;5055345;28;20044;-74
2022/10/10 12:31:32;;;;;;;16.75;15.00;;;21.70;99.90;;;;;;5052138;28;20043;-73
2022/10/10 12:34:09;;;;;;;17.50;15.70;;;21.70;99.90;;;;;;5055388;28;20511;-74
2022/10/10 12:37:09;;;;;;;17.30;15.00;;;21.60;99.90;;;;;;5051972;28;20485;-75
2022/10/10 12:39:59;;;;;;;19.58;16.48;;;21.70;99.90;;;;;;5052262;28;20048;-76
2022/10/10 12:42:35;;;;;;;25.50;20.98;;;21.80;99.90;;;;;;5056652;28;20072;-76
2022/10/10 12:45:02;;;;;;;17.75;15.88;;;22.00;99.90;;;;;;5052989;28;20037;-73
2022/10/10 12:47:45;;;;;;;19.42;16.38;;;22.30;99.40;;;;;;5052902;28;20382;-74